Time Latitude Longitude Accuracy (66% radius in meters) Altitude (meters) Speed (km/hour) Bearing (degrees) Battery (%) GPS flag
10:55:03 51.753772 39.189481 6 182.87108712756 0 148.38665771484 75 1 delete
10:54:51 51.753772 39.189481 6 182.73775450048 0 148.38665771484 75 1 delete
10:54:39 51.753772 39.189481 8 182.38316937904 0 148.38665771484 75 1 delete
10:54:27 51.753772 39.189481 8 182.07506360335 0 148.38665771484 75 1 delete
10:54:15 51.753772 39.189481 8 181.60619852537 0 148.38665771484 75 1 delete
10:54:03 51.753772 39.189481 8 181.18778186649 0 148.38665771484 75 1 delete
10:53:51 51.753772 39.189481 12 180.85848721445 0 148.38665771484 75 1 delete
10:53:39 51.753772 39.189481 16 180.58573353658 0 148.38665771484 75 1 delete
10:53:27 51.753772 39.189481 12 180.51303413195 0 148.38665771484 75 1 delete
10:53:18 51.753772 39.189481 6 180.50868051665 0 148.38665771484 75 1 delete
10:53:06 51.753772 39.189481 8 180.60945165056 0 148.38665771484 75 1 delete
10:52:54 51.753772 39.189481 8 180.8149511809 0 148.38665771484 75 1 delete
10:52:42 51.753772 39.189481 12 181.01005391111 0 148.38665771484 75 1 delete
10:52:27 51.753772 39.189481 8 181.05268429385 0 148.38665771484 75 1 delete
10:52:15 51.753772 39.189481 16 180.96087785159 0 148.38665771484 75 1 delete
10:52:03 51.753772 39.189481 8 181.00168952263 0 148.38665771484 75 1 delete
10:51:51 51.753772 39.189481 12 181.01409139643 0 148.38665771484 75 1 delete
10:51:39 51.753772 39.189481 16 181.34187139459 0 148.38665771484 75 1 delete
10:51:27 51.753772 39.189481 8 181.48726799725 0 148.38665771484 75 1 delete
10:51:15 51.753772 39.189481 8 181.37824331814 0 148.38665771484 75 1 delete
10:51:03 51.753772 39.189481 8 181.31664714359 0 148.38665771484 75 1 delete
10:50:54 51.753772 39.189481 8 181.18192577704 0 148.38665771484 75 1 delete
10:50:42 51.753772 39.189481 6 180.9759967697 0 148.38665771484 75 1 delete
10:50:27 51.753772 39.189481 4 180.66321436448 0 148.38665771484 75 1 delete
10:50:15 51.753772 39.189481 6 180.56521948955 0 148.38665771484 75 1 delete
10:50:03 51.753772 39.189481 12 180.51571401576 0 148.38665771484 75 1 delete
10:49:51 51.753772 39.189481 8 180.35085480238 0 148.38665771484 75 1 delete
10:49:39 51.753772 39.189481 12 180.31323133926 0 148.38665771484 75 1 delete
10:49:27 51.753772 39.189481 12 180.35159437146 0 148.38665771484 75 1 delete
10:49:15 51.753772 39.189481 8 179.90755553521 0 148.38665771484 75 1 delete
10:49:03 51.753772 39.189481 16 179.73367874573 0 148.38665771484 75 1 delete
10:48:51 51.753772 39.189481 12 180.01117259556 0 148.38665771484 75 1 delete
10:48:39 51.753772 39.189481 12 180.18243664212 0 148.38665771484 75 1 delete
10:48:27 51.753772 39.189481 12 180.41942238519 0 148.38665771484 75 1 delete
10:48:18 51.753772 39.189481 16 180.68005754285 0 148.38665771484 75 1 delete
10:48:06 51.753772 39.189481 12 180.94682330982 0 148.38665771484 75 1 delete
10:47:54 51.753772 39.189481 8 181.14808139568 0 148.38665771484 75 1 delete
10:47:42 51.753772 39.189481 8 181.27275188825 0 148.38665771484 75 1 delete
10:47:30 51.753772 39.189481 6 181.1416910899 0 148.38665771484 75 1 delete
10:47:18 51.753772 39.189481 8 181.08752862501 0 148.38665771484 75 1 delete
10:47:03 51.753772 39.189481 6 180.92316547867 0 148.38665771484 75 1 delete
10:46:51 51.753772 39.189481 6 180.65046184126 0 148.38665771484 75 1 delete
10:46:39 51.753772 39.189481 8 180.35031481976 0 148.38665771484 75 1 delete
10:46:27 51.753772 39.189481 8 180.247957472 0 148.38665771484 75 1 delete
10:46:15 51.753772 39.189481 8 180.03313355988 0 148.38665771484 75 1 delete
10:46:06 51.753772 39.189481 6 179.78199154985 0 148.38665771484 75 1 delete
10:45:54 51.753772 39.189481 8 179.64007177993 0 148.38665771484 75 1 delete
10:45:42 51.753772 39.189481 6 179.23622254005 0 148.38665771484 75 1 delete
10:45:30 51.753772 39.189481 6 178.83861101708 0 148.38665771484 75 1 delete
10:45:18 51.753772 39.189481 6 178.65691893318 0 148.38665771484 75 1 delete